createdAt,value
2023-05-01T00:02:24.085Z,13.02
2023-05-01T00:04:51.482Z,15.30
2023-05-01T00:07:18.636Z,12.25
2023-05-01T00:09:46.174Z,14.80
2023-05-01T00:12:13.402Z,13.70
2023-05-01T00:14:40.645Z,12.35
2023-05-01T00:17:07.909Z,12.05
2023-05-01T00:19:35.331Z,11.38
2023-05-01T00:22:02.819Z,11.82
2023-05-01T00:24:29.977Z,12.32
2023-05-01T00:26:57.139Z,13.88
2023-05-01T00:29:24.345Z,13.95
2023-05-01T00:31:51.642Z,12.00
2023-05-01T00:34:18.941Z,17.90
2023-05-01T00:36:47.511Z,10.95
2023-05-01T00:39:15.708Z,15.48
2023-05-01T00:41:42.788Z,11.95
2023-05-01T00:44:09.879Z,12.15
2023-05-01T00:46:37.708Z,11.77
2023-05-01T00:49:05.043Z,12.65
2023-05-01T00:51:32.302Z,16.13
2023-05-01T00:54:00.991Z,11.35
2023-05-01T00:56:28.255Z,12.35
2023-05-01T00:58:56.409Z,13.30
2023-05-01T01:01:24.134Z,10.38
2023-05-01T01:03:54.938Z,11.45
2023-05-01T01:06:56.258Z,11.93
2023-05-01T01:09:47.505Z,12.07
2023-05-01T01:12:39.280Z,13.63
2023-05-01T01:15:09.160Z,13.57
2023-05-01T01:17:51.856Z,11.02
2023-05-01T01:20:34.299Z,13.77
2023-05-01T01:23:29.099Z,14.17
2023-05-01T01:26:03.783Z,20.35
2023-05-01T01:28:56.823Z,12.73
2023-05-01T01:31:59.100Z,12.73
2023-05-01T01:34:33.155Z,11.80
2023-05-01T01:37:11.951Z,11.10
2023-05-01T01:40:11.881Z,13.10
2023-05-01T01:42:45.262Z,13.00
2023-05-01T01:45:26.562Z,16.63
2023-05-01T01:47:55.013Z,15.52
2023-05-01T01:50:26.946Z,15.80
2023-05-01T01:52:55.235Z,15.88
2023-05-01T01:55:28.015Z,13.07
2023-05-01T01:57:56.445Z,15.55
2023-05-01T02:00:24.171Z,15.70
2023-05-01T02:02:52.831Z,14.25
2023-05-01T02:05:22.126Z,12.98
2023-05-01T02:07:52.271Z,13.60
2023-05-01T02:10:21.200Z,14.23
2023-05-01T02:12:51.189Z,12.75
2023-05-01T02:15:19.983Z,12.77
2023-05-01T02:17:50.180Z,12.43
2023-05-01T02:20:18.350Z,13.88
2023-05-01T02:22:46.489Z,13.38
2023-05-01T02:25:15.198Z,10.95
2023-05-01T02:27:53.706Z,12.05
2023-05-01T02:30:20.981Z,10.07
2023-05-01T02:32:48.207Z,13.57
2023-05-01T02:35:17.205Z,12.27
2023-05-01T02:37:45.438Z,10.27
2023-05-01T02:40:15.258Z,10.40
2023-05-01T02:42:46.413Z,9.23
2023-05-01T02:45:20.779Z,8.65
2023-05-01T02:47:56.651Z,8.95
2023-05-01T02:50:25.277Z,8.93
2023-05-01T02:52:52.650Z,8.07
2023-05-01T02:55:19.921Z,10.60
2023-05-01T02:57:47.407Z,8.55
2023-05-01T03:00:14.704Z,7.28
2023-05-01T03:02:42.476Z,9.00
2023-05-01T03:05:10.137Z,7.45
2023-05-01T03:07:37.321Z,7.20
2023-05-01T03:10:08.363Z,8.73
2023-05-01T03:12:35.472Z,8.85
2023-05-01T03:15:02.774Z,11.20
2023-05-01T03:17:29.843Z,8.40
2023-05-01T03:19:57.340Z,8.40
2023-05-01T03:22:24.735Z,9.85
2023-05-01T03:24:52.284Z,11.48
2023-05-01T03:27:19.433Z,9.32
2023-05-01T03:29:47.282Z,10.25
2023-05-01T03:32:15.196Z,12.15
2023-05-01T03:34:42.362Z,15.02
2023-05-01T03:37:09.460Z,12.20
2023-05-01T03:39:37.325Z,12.93
2023-05-01T03:42:05.428Z,12.55
2023-05-01T03:44:32.942Z,10.93
2023-05-01T03:46:59.986Z,11.43
2023-05-01T03:49:27.337Z,11.05
2023-05-01T03:51:54.556Z,8.75
2023-05-01T03:54:21.672Z,9.07
2023-05-01T03:56:48.730Z,12.40
2023-05-01T03:59:15.803Z,9.15
2023-05-01T04:01:43.077Z,11.13
2023-05-01T04:04:10.601Z,10.20
2023-05-01T04:06:37.827Z,9.65
2023-05-01T04:09:05.041Z,10.40
2023-05-01T04:11:32.218Z,13.07
2023-05-01T04:13:59.471Z,10.32
2023-05-01T04:16:26.701Z,8.65
2023-05-01T04:18:53.908Z,8.98
2023-05-01T04:21:21.026Z,8.18
2023-05-01T04:23:48.100Z,9.82
2023-05-01T04:26:15.550Z,10.93
2023-05-01T04:28:42.798Z,9.57
2023-05-01T04:31:10.116Z,9.68
2023-05-01T04:33:37.896Z,11.60
2023-05-01T04:36:05.401Z,10.77
2023-05-01T04:38:33.197Z,9.30
2023-05-01T04:41:01.146Z,14.52
2023-05-01T04:43:28.261Z,9.68
2023-05-01T04:45:55.661Z,8.57
2023-05-01T04:48:23.227Z,8.73
2023-05-01T04:50:50.569Z,7.70
2023-05-01T04:53:17.791Z,8.40
2023-05-01T04:55:44.856Z,8.20
2023-05-01T04:58:12.073Z,7.43
2023-05-01T05:00:39.249Z,9.45
2023-05-01T05:03:07.067Z,9.07
2023-05-01T05:05:34.520Z,11.25
2023-05-01T05:08:02.526Z,12.88
2023-05-01T05:10:29.639Z,12.05
2023-05-01T05:12:57.014Z,9.63
2023-05-01T05:15:24.294Z,9.50
2023-05-01T05:17:51.629Z,7.75
2023-05-01T05:20:18.926Z,8.38
2023-05-01T05:22:46.135Z,8.88
2023-05-01T05:25:13.314Z,8.30
2023-05-01T05:27:40.479Z,7.30
2023-05-01T05:30:08.490Z,7.50
2023-05-01T05:32:35.733Z,11.30
2023-05-01T05:35:03.417Z,10.63
2023-05-01T05:37:30.577Z,9.80
2023-05-01T05:39:58.122Z,8.15
2023-05-01T05:42:25.690Z,9.10
2023-05-01T05:44:53.446Z,8.40
2023-05-01T05:47:20.708Z,10.32
2023-05-01T05:49:48.707Z,9.73
2023-05-01T05:52:16.134Z,9.50
2023-05-01T05:54:43.388Z,10.38
2023-05-01T05:57:10.570Z,10.82
2023-05-01T05:59:38.325Z,12.48
2023-05-01T06:02:06.677Z,12.43
2023-05-01T06:04:34.106Z,11.70
2023-05-01T06:07:01.515Z,10.63
2023-05-01T06:09:28.803Z,11.18
2023-05-01T06:11:55.907Z,11.60
2023-05-01T06:14:23.114Z,10.32
2023-05-01T06:16:50.325Z,8.35
2023-05-01T06:19:17.464Z,7.63
2023-05-01T06:21:44.634Z,10.32
2023-05-01T06:24:12.733Z,9.48
2023-05-01T06:26:39.872Z,10.18
2023-05-01T06:29:07.393Z,8.52
2023-05-01T06:31:34.645Z,9.93
2023-05-01T06:34:01.781Z,10.50
2023-05-01T06:36:28.929Z,27.55
2023-05-01T06:38:56.178Z,11.38
2023-05-01T06:41:23.713Z,15.43
2023-05-01T06:43:50.906Z,14.60
2023-05-01T06:46:18.131Z,14.00
2023-05-01T06:48:45.520Z,13.15
2023-05-01T06:51:15.075Z,12.10
2023-05-01T06:53:42.353Z,8.43
2023-05-01T06:56:09.524Z,13.63
2023-05-01T06:58:37.026Z,11.43
2023-05-01T07:01:05.650Z,9.35
2023-05-01T07:03:33.207Z,9.52
2023-05-01T07:06:00.653Z,12.18
2023-05-01T07:08:28.392Z,11.85
2023-05-01T07:10:55.608Z,8.25
2023-05-01T07:13:22.795Z,7.38
2023-05-01T07:15:51.691Z,9.70
2023-05-01T07:18:21.158Z,9.77
2023-05-01T07:20:50.199Z,9.60
2023-05-01T07:23:17.464Z,8.70
2023-05-01T07:25:46.321Z,9.43
2023-05-01T07:28:13.596Z,8.63
2023-05-01T07:30:40.779Z,6.57
2023-05-01T07:33:08.065Z,10.20
2023-05-01T07:35:35.271Z,10.07
2023-05-01T07:38:02.726Z,8.88
2023-05-01T07:40:29.836Z,7.97
2023-05-01T07:42:56.984Z,7.68
2023-05-01T07:45:24.025Z,6.53
2023-05-01T07:47:52.562Z,6.80
2023-05-01T07:50:19.801Z,8.27
2023-05-01T07:52:46.952Z,7.32
2023-05-01T07:55:14.197Z,8.05
2023-05-01T07:57:41.442Z,6.60
2023-05-01T08:00:09.431Z,8.80
2023-05-01T08:02:36.861Z,5.35
2023-05-01T08:05:04.344Z,6.95
2023-05-01T08:07:32.031Z,7.25
2023-05-01T08:10:00.975Z,6.68
2023-05-01T08:12:29.743Z,5.10
2023-05-01T08:14:56.942Z,4.57
2023-05-01T08:17:24.113Z,5.28
2023-05-01T08:19:51.388Z,6.70
2023-05-01T08:22:18.545Z,6.40
2023-05-01T08:24:45.583Z,11.23
2023-05-01T08:27:12.678Z,5.13
2023-05-01T08:29:39.787Z,9.93
2023-05-01T08:32:07.044Z,5.63
2023-05-01T08:34:34.279Z,6.93
2023-05-01T08:37:01.449Z,5.18
2023-05-01T08:39:28.571Z,7.38
2023-05-01T08:41:56.229Z,5.47
2023-05-01T08:44:28.292Z,7.90
2023-05-01T08:47:15.349Z,10.50
2023-05-01T08:49:43.258Z,12.35
2023-05-01T08:52:15.093Z,8.27
2023-05-01T08:54:47.326Z,5.97
2023-05-01T08:57:15.422Z,5.60
2023-05-01T08:59:43.114Z,8.85
2023-05-01T09:02:10.771Z,6.93
2023-05-01T09:04:39.873Z,6.75
2023-05-01T09:07:07.408Z,5.82
2023-05-01T09:09:35.238Z,7.85
2023-05-01T09:12:22.110Z,6.45
2023-05-01T09:14:53.074Z,5.55
2023-05-01T09:17:21.934Z,7.28
2023-05-01T09:19:50.198Z,5.55
2023-05-01T09:22:19.117Z,5.35
2023-05-01T09:24:47.127Z,6.43
2023-05-01T09:27:14.875Z,6.03
2023-05-01T09:29:47.758Z,8.75
2023-05-01T09:32:22.588Z,4.57
2023-05-01T09:34:51.889Z,4.80
2023-05-01T09:37:29.293Z,6.30
2023-05-01T09:40:15.126Z,5.32
2023-05-01T09:42:50.968Z,8.23
2023-05-01T09:45:23.518Z,4.28
2023-05-01T09:47:50.670Z,5.70
2023-05-01T09:50:35.048Z,8.82
2023-05-01T09:53:04.939Z,5.60
2023-05-01T09:55:32.647Z,7.28
2023-05-01T09:57:59.930Z,6.95
2023-05-01T10:00:27.761Z,3.40
2023-05-01T10:02:55.177Z,6.25
2023-05-01T10:05:23.369Z,7.70
2023-05-01T10:08:02.372Z,6.07
2023-05-01T10:10:30.054Z,4.80
2023-05-01T10:13:12.705Z,4.80
2023-05-01T10:15:39.868Z,4.07
2023-05-01T10:18:10.062Z,6.00
2023-05-01T10:20:37.371Z,5.25
2023-05-01T10:23:04.538Z,3.53
2023-05-01T10:25:33.031Z,2.88
2023-05-01T10:28:04.955Z,4.25
2023-05-01T10:30:32.545Z,4.28
2023-05-01T10:33:00.338Z,2.90
2023-05-01T10:35:33.444Z,8.43
2023-05-01T10:38:03.064Z,4.90
2023-05-01T10:40:49.841Z,6.30
2023-05-01T10:43:30.996Z,9.02
2023-05-01T10:46:10.125Z,6.22
2023-05-01T10:48:43.984Z,4.30
2023-05-01T10:51:18.186Z,3.40
2023-05-01T10:53:46.829Z,3.53
2023-05-01T10:56:26.605Z,4.00
2023-05-01T10:58:53.636Z,7.30
2023-05-01T11:01:34.299Z,6.38
2023-05-01T11:04:05.889Z,10.88
2023-05-01T11:06:33.550Z,7.93
2023-05-01T11:09:02.071Z,7.35
2023-05-01T11:11:29.124Z,2.88
2023-05-01T11:14:04.475Z,4.28
2023-05-01T11:16:38.204Z,5.88
2023-05-01T11:19:08.913Z,4.25
2023-05-01T11:21:38.611Z,4.43
2023-05-01T11:24:06.925Z,5.07
2023-05-01T11:26:42.554Z,4.72
2023-05-01T11:29:11.225Z,9.43
2023-05-01T11:31:39.555Z,7.93
2023-05-01T11:34:07.355Z,7.55
2023-05-01T11:36:51.581Z,4.68
2023-05-01T11:39:19.620Z,6.20
2023-05-01T11:41:48.008Z,4.68
2023-05-01T11:44:18.965Z,4.20
2023-05-01T11:46:46.314Z,4.80
2023-05-01T11:49:13.480Z,6.80
2023-05-01T11:51:40.882Z,4.40
2023-05-01T11:54:10.226Z,3.30
2023-05-01T11:56:38.433Z,3.33
2023-05-01T11:59:17.158Z,3.40
2023-05-01T12:01:46.447Z,3.95
2023-05-01T12:04:23.342Z,3.08
2023-05-01T12:06:51.447Z,5.45
2023-05-01T12:09:23.313Z,3.90
2023-05-01T12:11:53.469Z,6.43
2023-05-01T12:14:21.909Z,5.15
2023-05-01T12:16:49.560Z,4.43
2023-05-01T12:19:17.643Z,6.38
2023-05-01T12:21:44.988Z,3.20
2023-05-01T12:24:16.291Z,4.57
2023-05-01T12:26:45.457Z,5.53
2023-05-01T12:29:12.986Z,3.92
2023-05-01T12:31:47.982Z,8.05
2023-05-01T12:34:15.407Z,4.75
2023-05-01T12:36:42.733Z,3.47
2023-05-01T12:39:13.146Z,5.32
2023-05-01T12:41:45.235Z,3.05
2023-05-01T12:44:25.389Z,6.25
2023-05-01T12:47:03.906Z,4.38
2023-05-01T12:49:32.680Z,3.70
2023-05-01T12:52:01.320Z,3.63
2023-05-01T12:54:39.631Z,7.20
2023-05-01T12:57:11.191Z,4.45
2023-05-01T12:59:40.274Z,4.30
2023-05-01T13:02:08.588Z,4.30
2023-05-01T13:04:36.273Z,8.50
2023-05-01T13:07:12.330Z,5.72
2023-05-01T13:09:39.623Z,4.95
2023-05-01T13:12:09.155Z,5.18
2023-05-01T13:14:40.581Z,6.05
2023-05-01T13:17:09.437Z,6.10
2023-05-01T13:19:37.622Z,5.10
2023-05-01T13:22:06.100Z,5.63
2023-05-01T13:24:44.952Z,6.43
2023-05-01T13:27:12.770Z,4.80
2023-05-01T13:29:42.521Z,4.07
2023-05-01T13:32:11.732Z,4.60
2023-05-01T13:34:42.935Z,3.47
2023-05-01T13:37:13.916Z,3.22
2023-05-01T13:39:45.194Z,4.47
2023-05-01T13:42:13.237Z,4.35
2023-05-01T13:44:58.787Z,3.83
2023-05-01T13:47:27.307Z,5.13
2023-05-01T13:49:55.046Z,5.97
2023-05-01T13:52:22.195Z,4.05
2023-05-01T13:54:49.417Z,5.65
2023-05-01T13:57:17.601Z,3.20
2023-05-01T13:59:46.984Z,7.43
2023-05-01T14:02:22.070Z,5.72
2023-05-01T14:04:49.402Z,4.57
2023-05-01T14:07:20.372Z,3.72
2023-05-01T14:09:55.097Z,3.45
2023-05-01T14:12:30.879Z,4.55
2023-05-01T14:14:59.904Z,3.45
2023-05-01T14:17:37.987Z,7.65
2023-05-01T14:20:06.962Z,5.65
2023-05-01T14:22:45.870Z,4.20
2023-05-01T14:25:34.940Z,5.75
2023-05-01T14:28:06.191Z,5.13
2023-05-01T14:30:37.584Z,6.53
2023-05-01T14:33:10.105Z,7.25
2023-05-01T14:35:42.334Z,6.22
2023-05-01T14:38:12.629Z,6.18
2023-05-01T14:40:44.228Z,3.67
2023-05-01T14:43:18.751Z,5.85
2023-05-01T14:45:46.827Z,4.18
2023-05-01T14:48:24.502Z,9.52
2023-05-01T14:50:52.944Z,4.45
2023-05-01T14:53:20.491Z,6.60
2023-05-01T14:55:52.215Z,9.40
2023-05-01T14:58:19.375Z,6.97
2023-05-01T15:00:46.525Z,7.43
2023-05-01T15:03:13.787Z,4.15
2023-05-01T15:05:41.961Z,5.93
2023-05-01T15:08:09.664Z,6.80
2023-05-01T15:10:37.886Z,6.35
2023-05-01T15:13:06.240Z,7.65
2023-05-01T15:15:33.468Z,6.50
2023-05-01T15:18:00.722Z,3.72
2023-05-01T15:20:28.191Z,6.30
2023-05-01T15:22:55.443Z,7.93
2023-05-01T15:25:22.619Z,4.72
2023-05-01T15:27:50.586Z,6.18
2023-05-01T15:30:17.724Z,4.60
2023-05-01T15:32:45.147Z,4.50
2023-05-01T15:35:12.603Z,4.65
2023-05-01T15:37:39.891Z,3.53
2023-05-01T15:40:08.016Z,5.80
2023-05-01T15:42:35.166Z,4.30
2023-05-01T15:45:03.585Z,5.45
2023-05-01T15:47:30.811Z,5.90
2023-05-01T15:49:58.205Z,3.58
2023-05-01T15:52:25.896Z,5.40
2023-05-01T15:54:53.014Z,6.65
2023-05-01T15:57:20.092Z,7.05
2023-05-01T15:59:51.483Z,3.42
2023-05-01T16:02:18.683Z,6.35
2023-05-01T16:04:48.994Z,4.38
2023-05-01T16:07:16.090Z,4.68
2023-05-01T16:09:43.254Z,6.03
2023-05-01T16:12:11.786Z,5.10
2023-05-01T16:14:42.273Z,4.47
2023-05-01T16:17:09.459Z,5.22
2023-05-01T16:19:37.206Z,4.30
2023-05-01T16:22:05.534Z,4.32
2023-05-01T16:24:34.003Z,9.60
2023-05-01T16:27:01.776Z,6.60
2023-05-01T16:29:29.097Z,4.57
2023-05-01T16:31:56.279Z,6.22
2023-05-01T16:34:27.634Z,5.18
2023-05-01T16:36:56.249Z,2.60
2023-05-01T16:39:24.064Z,4.30
2023-05-01T16:41:55.389Z,5.05
2023-05-01T16:44:23.633Z,4.47
2023-05-01T16:46:55.305Z,3.67
2023-05-01T16:49:29.715Z,4.13
2023-05-01T16:51:58.362Z,4.30
2023-05-01T16:54:35.489Z,6.25
2023-05-01T16:57:06.212Z,2.83
2023-05-01T16:59:34.518Z,5.40
2023-05-01T17:02:01.777Z,4.75
2023-05-01T17:04:29.416Z,5.80
2023-05-01T17:06:56.651Z,4.05
2023-05-01T17:09:23.843Z,5.50
2023-05-01T17:11:51.123Z,7.25
2023-05-01T17:14:19.145Z,4.53
2023-05-01T17:16:48.653Z,3.85
2023-05-01T17:19:17.318Z,7.00
2023-05-01T17:21:44.553Z,4.32
2023-05-01T17:24:13.195Z,4.68
2023-05-01T17:26:40.392Z,6.50
2023-05-01T17:29:07.553Z,9.20
2023-05-01T17:31:34.820Z,10.93
2023-05-01T17:34:02.073Z,9.98
2023-05-01T17:36:29.548Z,10.05
2023-05-01T17:38:56.952Z,9.13
2023-05-01T17:41:24.896Z,7.25
2023-05-01T17:43:52.139Z,7.35
2023-05-01T17:46:20.396Z,5.97
2023-05-01T17:48:48.895Z,7.20
2023-05-01T17:51:16.151Z,5.50
2023-05-01T17:53:43.246Z,8.88
2023-05-01T17:56:10.445Z,6.15
2023-05-01T17:58:37.586Z,5.95
2023-05-01T18:01:05.931Z,7.40
2023-05-01T18:03:33.441Z,8.65
2023-05-01T18:06:02.854Z,9.70
2023-05-01T18:08:30.282Z,8.00
2023-05-01T18:10:57.387Z,8.05
2023-05-01T18:13:28.236Z,9.88
2023-05-01T18:15:56.131Z,8.35
2023-05-01T18:18:23.808Z,8.25
2023-05-01T18:20:51.119Z,7.20
2023-05-01T18:23:19.013Z,8.25
2023-05-01T18:25:46.567Z,7.03
2023-05-01T18:28:16.632Z,8.40
2023-05-01T18:30:44.082Z,11.63
2023-05-01T18:33:12.396Z,25.40
2023-05-01T18:35:42.556Z,22.40
2023-05-01T18:38:13.044Z,23.20
2023-05-01T18:40:40.251Z,19.25
2023-05-01T18:43:07.499Z,24.67
2023-05-01T18:45:34.633Z,23.83
2023-05-01T18:48:01.941Z,22.42
2023-05-01T18:50:29.402Z,26.20
2023-05-01T18:52:56.525Z,24.20
2023-05-01T18:55:23.717Z,24.05
2023-05-01T18:57:51.221Z,23.13
2023-05-01T19:00:20.409Z,24.10
2023-05-01T19:02:52.029Z,29.88
2023-05-01T19:05:20.010Z,30.80
2023-05-01T19:07:47.306Z,26.58
2023-05-01T19:10:15.008Z,28.92
2023-05-01T19:12:42.336Z,28.67
2023-05-01T19:15:10.269Z,28.05
2023-05-01T19:17:37.873Z,25.75
2023-05-01T19:20:05.780Z,21.23
2023-05-01T19:22:32.916Z,20.98
2023-05-01T19:25:03.186Z,19.98
2023-05-01T19:27:30.344Z,20.60
2023-05-01T19:30:00.947Z,19.67
2023-05-01T19:32:28.676Z,19.70
2023-05-01T19:34:56.883Z,16.40
2023-05-01T19:37:24.156Z,16.98
2023-05-01T19:39:51.309Z,22.77
2023-05-01T19:42:18.610Z,16.40
2023-05-01T19:44:46.618Z,19.95
2023-05-01T19:47:13.840Z,22.75
2023-05-01T19:49:41.007Z,17.98
2023-05-01T19:52:08.143Z,20.73
2023-05-01T19:54:35.193Z,16.08
2023-05-01T19:57:02.400Z,19.10
2023-05-01T19:59:30.860Z,17.88
2023-05-01T20:02:00.485Z,16.25
2023-05-01T20:04:29.056Z,18.20
2023-05-01T20:06:56.162Z,16.08
2023-05-01T20:09:23.461Z,19.17
2023-05-01T20:11:51.307Z,18.98
2023-05-01T20:14:18.479Z,18.92
2023-05-01T20:16:46.250Z,20.20
2023-05-01T20:19:13.737Z,17.65
2023-05-01T20:21:40.913Z,20.83
2023-05-01T20:24:08.394Z,19.17
2023-05-01T20:26:35.608Z,18.38
2023-05-01T20:29:02.698Z,22.33
2023-05-01T20:31:29.897Z,19.13
2023-05-01T20:33:57.139Z,21.42
2023-05-01T20:36:25.536Z,21.83
2023-05-01T20:38:53.491Z,18.42
2023-05-01T20:41:20.914Z,16.63
2023-05-01T20:43:48.088Z,18.40
2023-05-01T20:46:15.312Z,16.83
2023-05-01T20:48:43.301Z,17.05
2023-05-01T20:51:10.593Z,17.17
2023-05-01T20:53:37.709Z,19.67
2023-05-01T20:56:05.496Z,19.13
2023-05-01T20:58:32.713Z,16.65
2023-05-01T21:01:00.527Z,17.63
2023-05-01T21:03:28.234Z,18.02
2023-05-01T21:06:02.605Z,19.55
2023-05-01T21:08:30.339Z,20.67
2023-05-01T21:10:58.139Z,23.67
2023-05-01T21:13:27.347Z,17.73
2023-05-01T21:15:55.010Z,18.67
2023-05-01T21:18:22.298Z,15.75
2023-05-01T21:20:49.850Z,16.25
2023-05-01T21:23:18.293Z,15.32
2023-05-01T21:25:45.464Z,16.35
2023-05-01T21:28:14.030Z,15.10
2023-05-01T21:30:41.671Z,17.88
2023-05-01T21:33:14.731Z,17.20
2023-05-01T21:35:44.392Z,18.48
2023-05-01T21:38:11.840Z,19.23
2023-05-01T21:40:41.396Z,18.40
2023-05-01T21:43:09.576Z,15.68
2023-05-01T21:45:40.619Z,15.90
2023-05-01T21:48:09.203Z,22.48
2023-05-01T21:50:40.237Z,15.90
2023-05-01T21:53:07.585Z,17.40
2023-05-01T21:55:34.887Z,19.45
2023-05-01T21:58:02.622Z,19.17
2023-05-01T22:00:30.293Z,17.52
2023-05-01T22:02:57.622Z,17.52
2023-05-01T22:05:24.887Z,16.75
2023-05-01T22:07:52.919Z,15.80
2023-05-01T22:10:20.469Z,15.88
2023-05-01T22:12:50.679Z,16.90
2023-05-01T22:15:17.896Z,16.80
2023-05-01T22:17:45.796Z,16.80
2023-05-01T22:20:13.116Z,18.85
2023-05-01T22:22:41.775Z,18.60
2023-05-01T22:25:10.108Z,20.13
2023-05-01T22:27:37.508Z,16.85
2023-05-01T22:30:05.807Z,18.20
2023-05-01T22:32:33.140Z,18.23
2023-05-01T22:35:00.302Z,19.38
2023-05-01T22:37:27.498Z,18.65
2023-05-01T22:39:54.716Z,20.17
2023-05-01T22:42:23.282Z,19.02
2023-05-01T22:44:50.477Z,22.08
2023-05-01T22:47:17.744Z,19.75
2023-05-01T22:49:45.151Z,17.23
2023-05-01T22:52:12.243Z,18.85
2023-05-01T22:54:39.451Z,18.25
2023-05-01T22:57:06.597Z,18.25
2023-05-01T22:59:33.751Z,18.85
2023-05-01T23:02:04.567Z,17.73
2023-05-01T23:04:32.501Z,19.73
2023-05-01T23:06:59.753Z,17.65
2023-05-01T23:09:26.994Z,16.52
2023-05-01T23:11:54.290Z,17.33
2023-05-01T23:14:21.564Z,17.33
2023-05-01T23:16:48.752Z,18.08
2023-05-01T23:19:21.839Z,19.23
2023-05-01T23:21:50.243Z,16.73
2023-05-01T23:24:19.418Z,18.65
2023-05-01T23:26:47.236Z,18.00
2023-05-01T23:29:16.293Z,19.17
2023-05-01T23:31:47.860Z,16.20
2023-05-01T23:34:18.902Z,15.57
2023-05-01T23:36:47.138Z,19.38
2023-05-01T23:39:14.790Z,20.40
2023-05-01T23:41:42.369Z,17.67
2023-05-01T23:44:10.254Z,17.25
2023-05-01T23:46:38.242Z,16.70
2023-05-01T23:49:05.591Z,24.05
2023-05-01T23:51:32.983Z,17.98
2023-05-01T23:54:00.689Z,18.95
2023-05-01T23:56:27.807Z,20.50
2023-05-01T23:58:54.840Z,20.70
